CheckWX is a tool to help pilots better visualize weather data.  It is not intended as a substitute for an official pre-flight weather briefing.

12:52:54 UTC

KMDW TAF
Chicago Midway International Airport
Chicago, Illinois, USA
KMDW 171127Z 1712/1818 01005KT P6SM OVC007 FM171700 02006KT P6SM OVC015 FM172200 03007KT P6SM BKN025 FM181500 04004KT P6SM SCT035

Jun-17@
12:00 UTC

Jun-17 @ 12:00 UTC

Jun-17@
17:00 UTC

Jun-17 @ 17:00 UTC

KMDW 171127Z 1712/1818 01005KT P6SM OVC007
Wind
  • 010° at 5 KTS
Cloud Levels
  • Overcast at 700' AGL

Jun-17@
17:00 UTC

Jun-17 @ 17:00 UTC

Jun-17@
22:00 UTC

Jun-17 @ 22:00 UTC

FM171700 02006KT P6SM OVC015

From

From Standard forecast or significant change

Wind
  • 020° at 6 KTS
Cloud Levels
  • Overcast at 1,500' AGL

Jun-17@
22:00 UTC

Jun-17 @ 22:00 UTC

Jun-18@
15:00 UTC

Jun-18 @ 15:00 UTC

FM172200 03007KT P6SM BKN025

From

From Standard forecast or significant change

Wind
  • 030° at 7 KTS
Cloud Levels
  • Broken at 2,500' AGL

Jun-18@
15:00 UTC

Jun-18 @ 15:00 UTC

Jun-18@
18:00 UTC

Jun-18 @ 18:00 UTC

FM181500 04004KT P6SM SCT035

From

From Standard forecast or significant change

Wind
  • 040° at 4 KTS
Cloud Levels
  • Scattered at 3,500' AGL